CYSN

St Catharines / Niagara District Airport

St Catharines, , Canada
TAF CYSN 201242Z 2013/2101 32008G18KT P6SM FEW030 BECMG 2018/2020 31007KT BECMG 2023/2101 34006KT RMK NXT FCST BY 202000Z
Issued Valid From Valid To
Apr-20 @ 12:42 UTC
(6 hours ago)
Apr-20 @ 13:00 UTC
(6 hours ago)
Apr-21 @ 01:00 UTC
(in 6 hours)
Expired Click to View Apr-20 @ 13:00 to Apr-20 @ 18:00
TAF CYSN 201242Z 2013/2101 32008G18KT P6SM FEW030
Wind Visibility Clouds
320° at 8 knots
 Gusting to 18 knots
Greater than 6 miles
  • Few at 3,000' AGL
Becoming Apr-20 @ 18:00 to Apr-20 @ 23:00
BECMG 2018/2020 31007KT
Wind Visibility Clouds
310° at 7 knots Greater than 6 miles
  • Few at 3,000' AGL
Becoming Apr-20 @ 23:00 to Apr-21 @ 01:00
BECMG 2023/2101 34006KT RMK NXT FCST BY 202000Z
Wind Visibility Clouds
340° at 6 knots Greater than 6 miles
  • Few at 3,000' AGL
TAF CYSN 201242Z 2013/2101 32008G18KT P6SM FEW030 BECMG 2018/2020 31007KT BECMG 2023/2101 34006KT RMK NXT FCST BY 202000Z
Issued Apr-20 @ 12:42 UTC
(6 hours ago)
Valid From Apr-20 @ 13:00 UTC
(6 hours ago)
Valid To Apr-21 @ 01:00 UTC
(in 6 hours)
Apr-20 @ 13:00 - Apr-20 @ 18:00
Wind Visibility
320° at 8 knots
 Gusting to 18 knots
Greater than 6 miles
Clouds
  • Few at 3,000' AGL
Becoming Apr-20 @ 18:00 - Apr-20 @ 23:00
Wind Visibility
310° at 7 knots Greater than 6 miles
Clouds
  • Few at 3,000' AGL
Becoming Apr-20 @ 23:00 - Apr-21 @ 01:00
Wind Visibility
340° at 6 knots Greater than 6 miles
Clouds
  • Few at 3,000' AGL